Phoenix, Arizona
Traffic Map
Current Weather Conditions
Phoenix, Arizona
Clear
Clear
37°
Feels Like: 37°
Wind Chill: 37° Ceiling: Unl
Heat Index: 37° Visibility: 10mi
Dew Point: 11° Wind: 6mph
Humidity: 20% Direction: 250° (WSW)
Pressure: 29.85in Gusts: 0mph
Raw Report DataKPHX 230451Z 25005KT 10SM CLR 37/11 A2985 RMK AO2 SLP085 T03670106
Traffic Incident Summary
Active as of:
Severity:
Category:
InformationThere was an issue retrieving the traffic information for this location. Please try a different location or try again shortly.
Advertisements